createdAt,value
2019-01-17T00:01:03.472Z,5.30
2019-01-17T00:03:52.822Z,4.57
2019-01-17T00:06:45.544Z,4.87
2019-01-17T00:09:32.356Z,4.00
2019-01-17T00:12:24.072Z,3.90
2019-01-17T00:15:08.595Z,7.10
2019-01-17T00:17:55.203Z,6.53
2019-01-17T00:20:55.711Z,5.57
2019-01-17T00:23:42.240Z,10.17
2019-01-17T00:26:27.296Z,4.23
2019-01-17T00:29:19.160Z,3.93
2019-01-17T00:32:14.177Z,3.73
2019-01-17T00:35:03.036Z,3.83
2019-01-17T00:37:54.105Z,3.30
2019-01-17T00:40:43.555Z,3.20
2019-01-17T00:43:41.042Z,3.67
2019-01-17T00:46:31.883Z,3.10
2019-01-17T00:49:24.959Z,3.27
2019-01-17T00:52:13.512Z,2.97
2019-01-17T00:55:00.529Z,3.40
2019-01-17T00:57:55.412Z,2.80
2019-01-17T01:01:05.736Z,3.17
2019-01-17T01:04:02.257Z,2.50
2019-01-17T01:07:03.118Z,3.00
2019-01-17T01:09:57.302Z,3.00
2019-01-17T01:12:43.503Z,2.90
2019-01-17T01:15:30.939Z,3.07
2019-01-17T01:18:18.710Z,3.07
2019-01-17T01:21:06.531Z,2.70
2019-01-17T01:24:00.822Z,3.47
2019-01-17T01:26:48.540Z,3.17
2019-01-17T01:29:49.546Z,3.10
2019-01-17T01:32:46.569Z,3.30
2019-01-17T01:35:35.011Z,3.17
2019-01-17T01:38:23.851Z,3.27
2019-01-17T01:41:20.050Z,3.10
2019-01-17T01:44:06.721Z,3.30
2019-01-17T01:46:53.486Z,3.50
2019-01-17T01:49:42.036Z,3.00
2019-01-17T01:52:50.143Z,3.30
2019-01-17T01:55:24.552Z,3.37
2019-01-17T01:57:54.197Z,3.10
2019-01-17T02:00:25.134Z,3.50
2019-01-17T02:02:54.759Z,3.47
2019-01-17T02:05:25.439Z,3.73
2019-01-17T02:08:07.395Z,3.50
2019-01-17T02:10:36.441Z,3.70
2019-01-17T02:13:06.271Z,3.63
2019-01-17T02:15:36.335Z,3.47
2019-01-17T02:18:05.589Z,3.23
2019-01-17T02:20:40.890Z,3.70
2019-01-17T02:23:10.118Z,3.90
2019-01-17T02:25:52.796Z,4.10
2019-01-17T02:28:22.897Z,3.77
2019-01-17T02:30:52.976Z,3.80
2019-01-17T02:33:22.245Z,4.13
2019-01-17T02:35:51.497Z,4.30
2019-01-17T02:38:20.842Z,4.20
2019-01-17T02:40:53.019Z,4.00
2019-01-17T02:43:22.854Z,4.20
2019-01-17T02:45:57.501Z,4.67
2019-01-17T02:48:30.472Z,3.60
2019-01-17T02:51:02.834Z,4.33
2019-01-17T02:53:34.189Z,4.23
2019-01-17T02:56:03.752Z,4.50
2019-01-17T02:58:33.870Z,3.83
2019-01-17T03:01:04.143Z,4.40
2019-01-17T03:03:35.415Z,4.30
2019-01-17T03:06:11.674Z,4.47
2019-01-17T03:08:41.837Z,4.67
2019-01-17T03:11:12.901Z,4.57
2019-01-17T03:13:42.153Z,4.87
2019-01-17T03:16:11.425Z,4.47
2019-01-17T03:18:41.501Z,5.30
2019-01-17T03:21:10.765Z,4.90
2019-01-17T03:23:39.997Z,5.23
2019-01-17T03:26:09.271Z,5.07
2019-01-17T03:28:39.157Z,4.63
2019-01-17T03:31:09.806Z,4.63
2019-01-17T03:33:39.686Z,4.83
2019-01-17T03:36:13.340Z,5.13
2019-01-17T03:38:46.018Z,5.00
2019-01-17T03:41:15.819Z,4.80
2019-01-17T03:43:48.410Z,5.63
2019-01-17T03:46:17.963Z,5.50
2019-01-17T03:48:47.319Z,5.33
2019-01-17T03:51:16.674Z,4.50
2019-01-17T03:53:47.459Z,4.50
2019-01-17T03:56:21.735Z,5.33
2019-01-17T03:58:52.404Z,5.37
2019-01-17T04:01:27.230Z,4.80
2019-01-17T04:03:57.548Z,4.77
2019-01-17T04:06:27.413Z,4.90
2019-01-17T04:08:56.934Z,5.37
2019-01-17T04:11:27.188Z,4.87
2019-01-17T04:13:56.723Z,5.17
2019-01-17T04:16:26.254Z,5.27
2019-01-17T04:18:57.447Z,5.13
2019-01-17T04:21:26.540Z,4.67
2019-01-17T04:23:56.049Z,4.93
2019-01-17T04:26:25.297Z,4.60
2019-01-17T04:28:54.881Z,5.40
2019-01-17T04:31:25.145Z,5.00
2019-01-17T04:33:55.016Z,4.90
2019-01-17T04:36:26.898Z,4.73
2019-01-17T04:38:56.929Z,4.60
2019-01-17T04:41:26.213Z,4.67
2019-01-17T04:43:55.578Z,5.03
2019-01-17T04:46:25.198Z,4.73
2019-01-17T04:48:54.929Z,4.80
2019-01-17T04:51:26.776Z,4.73
2019-01-17T04:53:57.555Z,4.83
2019-01-17T04:56:27.916Z,5.03
2019-01-17T04:58:57.447Z,4.00
2019-01-17T05:01:26.661Z,4.40
2019-01-17T05:03:56.263Z,3.80
2019-01-17T05:06:25.765Z,4.10
2019-01-17T05:08:55.615Z,4.23
2019-01-17T05:11:25.286Z,3.80
2019-01-17T05:13:54.844Z,4.20
2019-01-17T05:16:26.530Z,3.50
2019-01-17T05:18:56.465Z,3.80
2019-01-17T05:21:25.670Z,3.67
2019-01-17T05:23:55.635Z,3.30
2019-01-17T05:26:26.436Z,3.67
2019-01-17T05:28:58.189Z,3.13
2019-01-17T05:31:28.999Z,2.97
2019-01-17T05:33:59.802Z,3.00
2019-01-17T05:36:29.358Z,2.90
2019-01-17T05:38:59.931Z,2.70
2019-01-17T05:41:29.283Z,2.50
2019-01-17T05:43:59.361Z,2.53
2019-01-17T05:46:29.616Z,2.37
2019-01-17T05:48:58.881Z,2.33
2019-01-17T05:51:28.890Z,2.10
2019-01-17T05:53:58.463Z,2.20
2019-01-17T05:56:28.301Z,1.97
2019-01-17T05:58:58.950Z,1.57
2019-01-17T06:01:30.113Z,1.37
2019-01-17T06:04:00.223Z,1.53
2019-01-17T06:06:33.054Z,1.50
2019-01-17T06:09:01.864Z,1.40
2019-01-17T06:11:31.391Z,1.40
2019-01-17T06:14:00.633Z,1.43
2019-01-17T06:16:30.425Z,1.10
2019-01-17T06:19:00.316Z,1.23
2019-01-17T06:21:30.288Z,0.90
2019-01-17T06:23:59.562Z,1.00
2019-01-17T06:26:29.055Z,1.00
2019-01-17T06:28:58.544Z,1.00
2019-01-17T06:31:28.098Z,0.90
2019-01-17T06:33:58.629Z,0.80
2019-01-17T06:36:28.242Z,0.90
2019-01-17T06:38:57.511Z,0.90
2019-01-17T06:41:27.013Z,0.80
2019-01-17T06:43:56.270Z,0.90
2019-01-17T06:46:25.534Z,1.00
2019-01-17T06:48:54.792Z,1.10
2019-01-17T06:51:24.432Z,0.90
2019-01-17T06:53:54.453Z,0.93
2019-01-17T06:56:25.561Z,1.00
2019-01-17T06:58:55.526Z,0.80
2019-01-17T07:01:26.265Z,0.80
2019-01-17T07:03:58.451Z,0.90
2019-01-17T07:06:29.057Z,0.70
2019-01-17T07:09:01.966Z,0.80
2019-01-17T07:11:32.324Z,0.90
2019-01-17T07:14:01.757Z,0.80
2019-01-17T07:16:31.791Z,0.80
2019-01-17T07:19:03.268Z,0.80
2019-01-17T07:21:32.535Z,0.70
2019-01-17T07:24:02.723Z,0.90
2019-01-17T07:26:33.325Z,0.90
2019-01-17T07:29:02.861Z,1.10
2019-01-17T07:31:32.981Z,0.90
2019-01-17T07:34:02.503Z,7.53
2019-01-17T07:36:32.393Z,11.33
2019-01-17T07:39:03.902Z,28.10
2019-01-17T07:41:33.195Z,49.37
2019-01-17T07:44:03.530Z,12.83
2019-01-17T07:46:36.565Z,9.57
2019-01-17T07:49:07.710Z,3.00
2019-01-17T07:51:38.111Z,1.30
2019-01-17T07:54:11.524Z,1.17
2019-01-17T07:56:51.015Z,1.20
2019-01-17T07:59:26.250Z,1.20
2019-01-17T08:01:58.956Z,1.53
2019-01-17T08:04:55.451Z,1.40
2019-01-17T08:07:31.780Z,1.00
2019-01-17T08:10:02.737Z,0.90
2019-01-17T08:12:38.400Z,0.80
2019-01-17T08:15:09.242Z,0.50
2019-01-17T08:17:44.140Z,0.60
2019-01-17T08:20:19.311Z,0.90
2019-01-17T08:22:55.114Z,0.80
2019-01-17T08:25:24.474Z,1.73
2019-01-17T08:27:55.987Z,2.50
2019-01-17T08:30:28.118Z,1.93
2019-01-17T08:33:01.242Z,1.50
2019-01-17T08:35:31.324Z,1.30
2019-01-17T08:38:00.953Z,0.90
2019-01-17T08:40:35.499Z,0.63
2019-01-17T08:43:04.734Z,0.90
2019-01-17T08:45:34.241Z,0.50
2019-01-17T08:48:04.933Z,0.67
2019-01-17T08:50:41.839Z,1.00
2019-01-17T08:53:14.705Z,0.97
2019-01-17T08:55:44.164Z,0.70
2019-01-17T08:58:14.470Z,0.97
2019-01-17T09:00:45.598Z,0.80
2019-01-17T09:03:21.887Z,0.80
2019-01-17T09:05:51.865Z,0.83
2019-01-17T09:08:24.582Z,0.97
2019-01-17T09:10:57.260Z,0.60
2019-01-17T09:13:35.165Z,0.80
2019-01-17T09:16:07.956Z,0.87
2019-01-17T09:18:38.686Z,0.70
2019-01-17T09:21:20.861Z,1.20
2019-01-17T09:23:51.317Z,1.63
2019-01-17T09:26:20.563Z,0.80
2019-01-17T09:28:49.843Z,1.10
2019-01-17T09:31:20.852Z,1.30
2019-01-17T09:33:55.665Z,1.30
2019-01-17T09:36:24.978Z,1.50
2019-01-17T09:38:54.605Z,1.20
2019-01-17T09:41:23.871Z,1.10
2019-01-17T09:43:53.126Z,1.03
2019-01-17T09:46:22.343Z,0.90
2019-01-17T09:48:54.226Z,1.00
2019-01-17T09:51:23.452Z,1.00
2019-01-17T09:53:55.712Z,0.90
2019-01-17T09:56:26.796Z,1.07
2019-01-17T09:58:58.861Z,0.87
2019-01-17T10:01:28.110Z,0.90
2019-01-17T10:03:59.213Z,0.80
2019-01-17T10:06:38.267Z,0.97
2019-01-17T10:09:10.776Z,10.93
2019-01-17T10:11:59.579Z,0.70
2019-01-17T10:14:30.316Z,0.80
2019-01-17T10:17:28.412Z,1.77
2019-01-17T10:20:36.085Z,1.13
2019-01-17T10:23:42.301Z,1.20
2019-01-17T10:26:44.200Z,0.90
2019-01-17T10:30:09.724Z,1.30
2019-01-17T10:33:02.817Z,0.80
2019-01-17T10:35:56.806Z,0.70
2019-01-17T10:38:55.287Z,0.60
2019-01-17T10:42:15.475Z,0.67
2019-01-17T10:45:30.580Z,0.80
2019-01-17T10:48:22.802Z,0.70
2019-01-17T10:51:34.123Z,0.70
2019-01-17T10:54:45.579Z,0.70
2019-01-17T10:57:27.831Z,0.67
2019-01-17T11:00:37.859Z,0.63
2019-01-17T11:03:24.913Z,0.80
2019-01-17T11:06:22.209Z,0.77
2019-01-17T11:09:31.107Z,0.50
2019-01-17T11:12:37.025Z,0.70
2019-01-17T11:15:22.656Z,0.60
2019-01-17T11:18:24.335Z,0.97
2019-01-17T11:22:04.678Z,0.80
2019-01-17T11:25:07.828Z,0.63
2019-01-17T11:28:10.664Z,0.70
2019-01-17T11:31:21.034Z,0.70
2019-01-17T11:34:27.050Z,3.40
2019-01-17T11:37:34.408Z,7.27
2019-01-17T11:40:43.889Z,1.03
2019-01-17T11:43:56.787Z,0.80
2019-01-17T11:46:46.431Z,0.60
2019-01-17T11:49:56.871Z,0.60
2019-01-17T11:53:02.432Z,0.70
2019-01-17T11:56:08.153Z,0.70
2019-01-17T11:59:09.007Z,0.60
2019-01-17T12:02:39.389Z,0.70
2019-01-17T12:05:09.708Z,0.70
2019-01-17T12:07:39.101Z,0.60
2019-01-17T12:10:08.969Z,0.50
2019-01-17T12:12:38.515Z,0.60
2019-01-17T12:15:09.272Z,1.10
2019-01-17T12:17:38.786Z,0.50
2019-01-17T12:20:09.172Z,0.70
2019-01-17T12:22:38.413Z,0.60
2019-01-17T12:25:07.930Z,0.70
2019-01-17T12:27:42.463Z,0.60
2019-01-17T12:30:13.007Z,0.70
2019-01-17T12:32:42.280Z,0.60
2019-01-17T12:35:12.926Z,0.60
2019-01-17T12:37:42.184Z,0.40
2019-01-17T12:40:15.022Z,0.70
2019-01-17T12:42:44.299Z,0.73
2019-01-17T12:45:13.877Z,0.40
2019-01-17T12:47:43.705Z,0.57
2019-01-17T12:50:17.141Z,0.70
2019-01-17T12:52:47.475Z,0.70
2019-01-17T12:55:17.475Z,0.50
2019-01-17T12:57:46.750Z,0.60
2019-01-17T13:00:20.496Z,0.70
2019-01-17T13:02:50.866Z,0.50
2019-01-17T13:05:21.153Z,0.60
2019-01-17T13:07:50.776Z,0.70
2019-01-17T13:10:20.455Z,0.57
2019-01-17T13:12:49.688Z,0.67
2019-01-17T13:15:21.204Z,0.50
2019-01-17T13:17:50.744Z,0.50
2019-01-17T13:20:19.998Z,0.73
2019-01-17T13:22:49.220Z,0.40
2019-01-17T13:25:21.110Z,0.60
2019-01-17T13:27:50.771Z,0.57
2019-01-17T13:30:23.109Z,0.63
2019-01-17T13:32:53.494Z,0.60
2019-01-17T13:35:23.093Z,0.70
2019-01-17T13:37:54.134Z,0.60
2019-01-17T13:40:23.434Z,0.50
2019-01-17T13:42:53.231Z,1.40
2019-01-17T13:45:22.587Z,1.13
2019-01-17T13:47:52.575Z,1.20
2019-01-17T13:50:22.235Z,1.40
2019-01-17T13:52:54.221Z,0.50
2019-01-17T13:55:24.012Z,6.50
2019-01-17T13:57:53.588Z,0.97
2019-01-17T14:00:24.476Z,0.60
2019-01-17T14:02:56.010Z,0.77
2019-01-17T14:05:26.251Z,0.80
2019-01-17T14:07:55.481Z,0.80
2019-01-17T14:10:25.054Z,0.60
2019-01-17T14:12:54.586Z,0.60
2019-01-17T14:15:30.381Z,0.50
2019-01-17T14:18:00.380Z,0.90
2019-01-17T14:20:31.005Z,0.70
2019-01-17T14:23:00.255Z,0.97
2019-01-17T14:25:30.875Z,0.40
2019-01-17T14:28:00.125Z,0.40
2019-01-17T14:30:31.649Z,0.47
2019-01-17T14:33:00.875Z,0.20
2019-01-17T14:35:30.769Z,0.33
2019-01-17T14:38:00.314Z,0.30
2019-01-17T14:40:29.596Z,0.40
2019-01-17T14:42:59.754Z,0.60
2019-01-17T14:45:29.272Z,0.60
2019-01-17T14:47:59.122Z,0.40
2019-01-17T14:50:31.344Z,0.50
2019-01-17T14:53:02.134Z,0.20
2019-01-17T14:55:31.399Z,0.50
2019-01-17T14:58:00.629Z,0.47
2019-01-17T15:00:32.105Z,0.40
2019-01-17T15:03:01.370Z,0.47
2019-01-17T15:05:30.636Z,0.40
2019-01-17T15:08:01.607Z,0.50
2019-01-17T15:10:44.811Z,0.40
2019-01-17T15:13:15.569Z,0.37
2019-01-17T15:15:46.101Z,0.63
2019-01-17T15:18:16.767Z,0.43
2019-01-17T15:20:48.282Z,0.53
2019-01-17T15:23:21.573Z,0.63
2019-01-17T15:25:52.100Z,0.30
2019-01-17T15:28:22.002Z,0.50
2019-01-17T15:30:55.260Z,0.50
2019-01-17T15:33:41.458Z,0.57
2019-01-17T15:36:17.349Z,0.80
2019-01-17T15:38:52.547Z,0.33
2019-01-17T15:41:28.385Z,0.57
2019-01-17T15:43:54.595Z,0.77
2019-01-17T15:46:27.026Z,0.80
2019-01-17T15:48:58.746Z,1.13
2019-01-17T15:51:28.629Z,1.40
2019-01-17T15:54:00.472Z,1.40
2019-01-17T15:56:29.784Z,1.30
2019-01-17T15:58:59.008Z,1.40
2019-01-17T16:01:28.280Z,1.30
2019-01-17T16:03:57.531Z,1.20
2019-01-17T16:06:27.590Z,1.30
2019-01-17T16:08:57.228Z,1.40
2019-01-17T16:11:26.460Z,1.33
2019-01-17T16:13:56.910Z,1.33
2019-01-17T16:16:26.139Z,1.60
2019-01-17T16:18:55.708Z,1.40
2019-01-17T16:21:24.957Z,1.90
2019-01-17T16:23:54.200Z,1.40
2019-01-17T16:26:23.800Z,1.70
2019-01-17T16:28:53.074Z,1.67
2019-01-17T16:31:23.109Z,1.57
2019-01-17T16:33:59.827Z,1.67
2019-01-17T16:36:29.678Z,1.60
2019-01-17T16:38:58.944Z,2.20
2019-01-17T16:41:28.199Z,2.40
2019-01-17T16:43:57.481Z,2.40
2019-01-17T16:46:27.512Z,2.00
2019-01-17T16:48:57.068Z,2.10
2019-01-17T16:51:26.564Z,2.10
2019-01-17T16:53:57.284Z,1.83
2019-01-17T16:56:27.844Z,2.17
2019-01-17T16:59:01.213Z,2.37
2019-01-17T17:01:31.811Z,1.80
2019-01-17T17:04:02.523Z,2.00
2019-01-17T17:06:34.641Z,1.50
2019-01-17T17:09:09.943Z,1.60
2019-01-17T17:11:40.296Z,1.40
2019-01-17T17:14:15.563Z,1.60
2019-01-17T17:16:49.629Z,1.50
2019-01-17T17:19:19.521Z,1.67
2019-01-17T17:21:55.296Z,1.63
2019-01-17T17:24:25.579Z,1.50
2019-01-17T17:26:54.904Z,1.67
2019-01-17T17:29:24.178Z,1.77
2019-01-17T17:31:54.113Z,1.73
2019-01-17T17:34:23.428Z,1.53
2019-01-17T17:36:53.519Z,1.30
2019-01-17T17:39:23.615Z,1.50
2019-01-17T17:41:53.134Z,1.30
2019-01-17T17:44:27.343Z,1.20
2019-01-17T17:46:58.073Z,1.20
2019-01-17T17:49:28.990Z,1.30
2019-01-17T17:51:58.658Z,1.10
2019-01-17T17:54:28.730Z,1.20
2019-01-17T17:56:58.580Z,1.27
2019-01-17T17:59:32.271Z,1.00
2019-01-17T18:02:10.054Z,1.00
2019-01-17T18:04:39.562Z,1.20
2019-01-17T18:07:14.596Z,1.50
2019-01-17T18:09:44.595Z,1.30
2019-01-17T18:12:15.746Z,1.73
2019-01-17T18:14:46.677Z,1.80
2019-01-17T18:17:16.340Z,1.87
2019-01-17T18:19:45.624Z,1.60
2019-01-17T18:22:22.303Z,1.53
2019-01-17T18:24:52.750Z,2.30
2019-01-17T18:27:22.007Z,2.17
2019-01-17T18:29:53.263Z,1.80
2019-01-17T18:32:22.511Z,2.20
2019-01-17T18:34:56.768Z,1.87
2019-01-17T18:37:30.151Z,1.90
2019-01-17T18:40:02.225Z,2.23
2019-01-17T18:42:44.328Z,1.40
2019-01-17T18:45:36.614Z,1.07
2019-01-17T18:48:07.687Z,0.70
2019-01-17T18:50:38.794Z,0.97
2019-01-17T18:53:08.158Z,0.90
2019-01-17T18:55:42.874Z,0.60
2019-01-17T18:58:15.646Z,0.80
2019-01-17T19:00:47.819Z,1.03
2019-01-17T19:03:17.281Z,1.20
2019-01-17T19:05:46.732Z,1.20
2019-01-17T19:08:16.349Z,1.30
2019-01-17T19:10:45.582Z,1.47
2019-01-17T19:13:16.674Z,1.87
2019-01-17T19:15:45.947Z,1.70
2019-01-17T19:18:15.638Z,1.80
2019-01-17T19:20:45.125Z,2.07
2019-01-17T19:23:20.244Z,3.10
2019-01-17T19:25:54.336Z,3.73
2019-01-17T19:28:23.640Z,4.07
2019-01-17T19:30:52.992Z,3.80
2019-01-17T19:33:22.272Z,4.70
2019-01-17T19:35:51.879Z,4.43
2019-01-17T19:38:25.382Z,4.20
2019-01-17T19:40:56.478Z,4.03
2019-01-17T19:43:25.966Z,3.77
2019-01-17T19:45:55.602Z,3.43
2019-01-17T19:48:25.134Z,4.00
2019-01-17T19:50:55.245Z,4.17
2019-01-17T19:53:33.452Z,3.17
2019-01-17T19:56:04.162Z,2.70
2019-01-17T19:58:35.919Z,2.97
2019-01-17T20:01:06.604Z,2.03
2019-01-17T20:03:39.774Z,2.57
2019-01-17T20:06:16.213Z,2.13
2019-01-17T20:08:55.499Z,2.67
2019-01-17T20:11:25.790Z,1.93
2019-01-17T20:13:55.282Z,2.03
2019-01-17T20:16:24.963Z,2.57
2019-01-17T20:18:58.178Z,2.30
2019-01-17T20:21:28.322Z,2.17
2019-01-17T20:23:58.620Z,2.80
2019-01-17T20:26:29.364Z,2.83
2019-01-17T20:28:59.968Z,2.50
2019-01-17T20:31:30.244Z,3.00
2019-01-17T20:33:59.610Z,2.47
2019-01-17T20:36:28.859Z,2.47
2019-01-17T20:38:58.115Z,4.77
2019-01-17T20:41:27.337Z,4.07
2019-01-17T20:43:57.492Z,3.97
2019-01-17T20:46:32.853Z,2.73
2019-01-17T20:49:03.016Z,2.30
2019-01-17T20:51:33.579Z,2.77
2019-01-17T20:54:03.439Z,2.93
2019-01-17T20:56:34.319Z,2.73
2019-01-17T20:59:06.579Z,2.37
2019-01-17T21:02:02.075Z,2.83
2019-01-17T21:04:31.941Z,3.30
2019-01-17T21:07:05.600Z,3.03
2019-01-17T21:09:36.123Z,3.43
2019-01-17T21:12:07.930Z,3.07
2019-01-17T21:14:40.832Z,3.57
2019-01-17T21:17:10.447Z,3.73
2019-01-17T21:19:40.948Z,2.90
2019-01-17T21:22:12.600Z,3.13
2019-01-17T21:24:42.367Z,3.13
2019-01-17T21:27:12.477Z,3.50
2019-01-17T21:29:41.886Z,3.40
2019-01-17T21:32:11.738Z,3.43
2019-01-17T21:34:50.318Z,2.90
2019-01-17T21:37:19.642Z,3.10
2019-01-17T21:39:48.914Z,3.33
2019-01-17T21:42:18.182Z,3.40
2019-01-17T21:44:49.119Z,3.20
2019-01-17T21:47:20.716Z,3.37
2019-01-17T21:49:51.499Z,4.10
2019-01-17T21:52:21.426Z,3.50
2019-01-17T21:54:51.851Z,3.70
2019-01-17T21:57:21.405Z,3.53
2019-01-17T21:59:51.774Z,3.50
2019-01-17T22:02:25.056Z,4.37
2019-01-17T22:04:57.926Z,3.33
2019-01-17T22:07:27.473Z,3.73
2019-01-17T22:10:06.982Z,3.87
2019-01-17T22:12:36.516Z,3.57
2019-01-17T22:15:11.730Z,3.40
2019-01-17T22:17:41.551Z,3.57
2019-01-17T22:20:11.414Z,3.93
2019-01-17T22:22:41.318Z,3.50
2019-01-17T22:25:16.526Z,3.57
2019-01-17T22:27:47.286Z,3.43
2019-01-17T22:30:19.339Z,3.57
2019-01-17T22:32:49.458Z,3.37
2019-01-17T22:35:19.497Z,3.73
2019-01-17T22:37:50.374Z,3.63
2019-01-17T22:40:20.061Z,3.20
2019-01-17T22:42:50.873Z,3.23
2019-01-17T22:45:22.503Z,3.33
2019-01-17T22:47:51.749Z,3.40
2019-01-17T22:50:21.076Z,2.80
2019-01-17T22:52:50.482Z,2.70
2019-01-17T22:55:19.820Z,3.17
2019-01-17T22:57:49.481Z,2.97
2019-01-17T23:00:32.460Z,3.17
2019-01-17T23:03:03.111Z,3.40
2019-01-17T23:05:33.436Z,2.87
2019-01-17T23:08:03.502Z,3.00
2019-01-17T23:10:32.724Z,3.37
2019-01-17T23:13:02.311Z,2.80
2019-01-17T23:15:32.103Z,3.00
2019-01-17T23:18:05.245Z,3.03
2019-01-17T23:20:35.205Z,3.03
2019-01-17T23:23:06.559Z,3.30
2019-01-17T23:25:41.866Z,2.80
2019-01-17T23:28:11.499Z,3.00
2019-01-17T23:30:41.750Z,3.17
2019-01-17T23:33:11.031Z,3.50
2019-01-17T23:35:43.169Z,2.10
2019-01-17T23:38:12.813Z,2.80
2019-01-17T23:40:42.338Z,2.97
2019-01-17T23:43:11.642Z,2.77
2019-01-17T23:45:41.999Z,2.57
2019-01-17T23:48:11.915Z,3.07
2019-01-17T23:50:41.157Z,3.10
2019-01-17T23:53:10.741Z,3.67
2019-01-17T23:55:41.055Z,3.33
2019-01-17T23:58:10.983Z,3.23
